sensor_id;sensor_type;location;lat;lon;timestamp;pressure;altitude;pressure_sealevel;temperature;humidity
21826;BME280;11075;47.944;11.776;2023-03-11T00:00:54;93362.00;;;3.44;28.95
21826;BME280;11075;47.944;11.776;2023-03-11T00:03:21;93389.56;;;3.19;28.85
21826;BME280;11075;47.944;11.776;2023-03-11T00:05:50;93394.06;;;4.19;27.27
21826;BME280;11075;47.944;11.776;2023-03-11T00:08:20;93395.50;;;5.07;27.01
21826;BME280;11075;47.944;11.776;2023-03-11T00:10:52;93384.78;;;2.57;28.76
21826;BME280;11075;47.944;11.776;2023-03-11T00:13:20;93407.00;;;3.66;28.00
21826;BME280;11075;47.944;11.776;2023-03-11T00:15:48;93414.97;;;5.44;25.64
21826;BME280;11075;47.944;11.776;2023-03-11T00:18:16;93424.38;;;4.14;27.21
21826;BME280;11075;47.944;11.776;2023-03-11T00:20:44;93447.72;;;2.01;28.24
21826;BME280;11075;47.944;11.776;2023-03-11T00:23:13;93428.75;;;2.71;27.03
21826;BME280;11075;47.944;11.776;2023-03-11T00:25:42;93434.44;;;2.09;27.09
21826;BME280;11075;47.944;11.776;2023-03-11T00:28:10;93451.72;;;4.44;25.34
21826;BME280;11075;47.944;11.776;2023-03-11T00:30:38;93439.56;;;2.49;26.85
21826;BME280;11075;47.944;11.776;2023-03-11T00:33:07;93450.22;;;1.97;26.93
21826;BME280;11075;47.944;11.776;2023-03-11T00:35:34;93463.28;;;2.89;25.93
21826;BME280;11075;47.944;11.776;2023-03-11T00:38:06;93461.25;;;2.86;25.43
21826;BME280;11075;47.944;11.776;2023-03-11T00:40:34;93464.72;;;2.69;25.94
21826;BME280;11075;47.944;11.776;2023-03-11T00:43:02;93478.00;;;2.86;25.79
21826;BME280;11075;47.944;11.776;2023-03-11T00:45:30;93470.22;;;1.77;26.34
21826;BME280;11075;47.944;11.776;2023-03-11T00:47:57;93476.09;;;3.33;24.78
21826;BME280;11075;47.944;11.776;2023-03-11T00:50:30;93484.53;;;3.73;23.70
21826;BME280;11075;47.944;11.776;2023-03-11T00:52:58;93497.25;;;2.74;25.31
21826;BME280;11075;47.944;11.776;2023-03-11T00:55:30;93481.63;;;1.87;26.30
21826;BME280;11075;47.944;11.776;2023-03-11T00:58:01;93515.31;;;4.13;23.76
21826;BME280;11075;47.944;11.776;2023-03-11T01:00:36;93513.47;;;2.99;25.18
21826;BME280;11075;47.944;11.776;2023-03-11T01:03:02;93528.75;;;4.99;23.24
21826;BME280;11075;47.944;11.776;2023-03-11T01:05:32;93520.28;;;4.23;23.25
21826;BME280;11075;47.944;11.776;2023-03-11T01:08:01;93514.66;;;3.27;24.28
21826;BME280;11075;47.944;11.776;2023-03-11T01:10:29;93529.75;;;5.07;23.05
21826;BME280;11075;47.944;11.776;2023-03-11T01:12:56;93531.16;;;3.88;23.65
21826;BME280;11075;47.944;11.776;2023-03-11T01:15:30;93538.59;;;4.24;23.17
21826;BME280;11075;47.944;11.776;2023-03-11T01:17:57;93519.50;;;3.72;24.20
21826;BME280;11075;47.944;11.776;2023-03-11T01:20:24;93532.94;;;5.33;22.49
21826;BME280;11075;47.944;11.776;2023-03-11T01:22:51;93519.66;;;3.96;24.34
21826;BME280;11075;47.944;11.776;2023-03-11T01:25:20;93541.16;;;3.91;23.56
21826;BME280;11075;47.944;11.776;2023-03-11T01:27:49;93536.97;;;3.43;24.59
21826;BME280;11075;47.944;11.776;2023-03-11T01:30:22;93537.63;;;6.34;21.97
21826;BME280;11075;47.944;11.776;2023-03-11T01:32:50;93525.09;;;4.29;24.13
21826;BME280;11075;47.944;11.776;2023-03-11T01:35:19;93521.28;;;4.93;23.89
21826;BME280;11075;47.944;11.776;2023-03-11T01:37:46;93539.25;;;4.84;23.41
21826;BME280;11075;47.944;11.776;2023-03-11T01:40:20;93539.78;;;4.56;23.09
21826;BME280;11075;47.944;11.776;2023-03-11T01:42:50;93544.19;;;5.51;22.51
21826;BME280;11075;47.944;11.776;2023-03-11T01:48:02;93557.81;;;6.19;21.68
21826;BME280;11075;47.944;11.776;2023-03-11T01:50:34;93557.25;;;6.26;21.88
21826;BME280;11075;47.944;11.776;2023-03-11T01:53:02;93545.53;;;3.58;24.24
21826;BME280;11075;47.944;11.776;2023-03-11T01:55:30;93535.97;;;3.95;24.38
21826;BME280;11075;47.944;11.776;2023-03-11T01:57:59;93535.88;;;2.89;25.31
21826;BME280;11075;47.944;11.776;2023-03-11T02:00:28;93539.75;;;3.94;24.42
21826;BME280;11075;47.944;11.776;2023-03-11T02:02:57;93546.47;;;5.74;22.79
21826;BME280;11075;47.944;11.776;2023-03-11T02:05:26;93538.09;;;2.35;26.05
21826;BME280;11075;47.944;11.776;2023-03-11T02:07:54;93540.78;;;4.73;23.91
21826;BME280;11075;47.944;11.776;2023-03-11T02:10:26;93531.88;;;3.97;24.94
21826;BME280;11075;47.944;11.776;2023-03-11T02:12:53;93522.16;;;3.25;25.32
21826;BME280;11075;47.944;11.776;2023-03-11T02:15:21;93523.50;;;4.91;24.09
21826;BME280;11075;47.944;11.776;2023-03-11T02:17:50;93519.41;;;3.04;26.12
21826;BME280;11075;47.944;11.776;2023-03-11T02:20:26;93534.41;;;4.65;24.34
21826;BME280;11075;47.944;11.776;2023-03-11T02:22:59;93514.53;;;4.54;24.85
21826;BME280;11075;47.944;11.776;2023-03-11T02:25:50;93518.91;;;4.37;24.91
21826;BME280;11075;47.944;11.776;2023-03-11T02:28:20;93536.34;;;4.77;24.04
21826;BME280;11075;47.944;11.776;2023-03-11T02:30:48;93515.25;;;3.71;24.90
21826;BME280;11075;47.944;11.776;2023-03-11T02:33:17;93539.59;;;5.27;23.83
21826;BME280;11075;47.944;11.776;2023-03-11T02:35:46;93527.28;;;4.06;25.07
21826;BME280;11075;47.944;11.776;2023-03-11T02:38:12;93521.66;;;2.51;26.77
21826;BME280;11075;47.944;11.776;2023-03-11T02:40:46;93549.59;;;4.85;23.29
21826;BME280;11075;47.944;11.776;2023-03-11T02:43:21;93553.75;;;4.95;23.80
21826;BME280;11075;47.944;11.776;2023-03-11T02:45:49;93541.03;;;4.80;24.53
21826;BME280;11075;47.944;11.776;2023-03-11T02:48:17;93555.94;;;5.83;23.17
21826;BME280;11075;47.944;11.776;2023-03-11T02:50:45;93546.78;;;3.69;25.11
21826;BME280;11075;47.944;11.776;2023-03-11T02:53:14;93524.78;;;2.61;26.72
21826;BME280;11075;47.944;11.776;2023-03-11T02:55:41;93528.50;;;3.88;24.60
21826;BME280;11075;47.944;11.776;2023-03-11T02:58:08;93534.44;;;4.56;24.79
21826;BME280;11075;47.944;11.776;2023-03-11T03:00:36;93516.31;;;1.90;27.55
21826;BME280;11075;47.944;11.776;2023-03-11T03:03:06;93520.38;;;3.00;26.04
21826;BME280;11075;47.944;11.776;2023-03-11T03:05:33;93527.84;;;3.91;25.62
21826;BME280;11075;47.944;11.776;2023-03-11T03:08:00;93527.97;;;3.19;26.09
21826;BME280;11075;47.944;11.776;2023-03-11T03:10:28;93523.50;;;1.41;27.94
21826;BME280;11075;47.944;11.776;2023-03-11T03:12:56;93520.22;;;3.43;26.29
21826;BME280;11075;47.944;11.776;2023-03-11T03:15:24;93554.84;;;3.81;25.01
21826;BME280;11075;47.944;11.776;2023-03-11T03:17:51;93560.31;;;5.30;23.75
21826;BME280;11075;47.944;11.776;2023-03-11T03:20:18;93566.22;;;3.61;24.63
21826;BME280;11075;47.944;11.776;2023-03-11T03:22:51;93568.75;;;6.02;22.74
21826;BME280;11075;47.944;11.776;2023-03-11T03:25:21;93581.88;;;4.00;24.65
21826;BME280;11075;47.944;11.776;2023-03-11T03:27:48;93564.81;;;2.22;27.34
21826;BME280;11075;47.944;11.776;2023-03-11T03:30:16;93558.38;;;5.19;24.35
21826;BME280;11075;47.944;11.776;2023-03-11T03:32:43;93566.03;;;3.74;24.96
21826;BME280;11075;47.944;11.776;2023-03-11T03:35:13;93561.97;;;1.52;27.16
21826;BME280;11075;47.944;11.776;2023-03-11T03:37:53;93578.88;;;3.64;24.70
21826;BME280;11075;47.944;11.776;2023-03-11T03:40:21;93566.53;;;2.95;25.41
21826;BME280;11075;47.944;11.776;2023-03-11T03:42:49;93561.19;;;2.00;26.06
21826;BME280;11075;47.944;11.776;2023-03-11T03:45:16;93570.91;;;3.64;24.54
21826;BME280;11075;47.944;11.776;2023-03-11T03:47:44;93579.81;;;3.21;24.79
21826;BME280;11075;47.944;11.776;2023-03-11T03:50:11;93591.94;;;3.95;23.74
21826;BME280;11075;47.944;11.776;2023-03-11T03:52:42;93601.63;;;3.99;23.90
21826;BME280;11075;47.944;11.776;2023-03-11T03:55:09;93583.91;;;2.50;25.96
21826;BME280;11075;47.944;11.776;2023-03-11T03:57:37;93569.03;;;0.37;27.87
21826;BME280;11075;47.944;11.776;2023-03-11T04:00:06;93568.63;;;1.41;27.01
21826;BME280;11075;47.944;11.776;2023-03-11T04:02:39;93568.22;;;1.96;25.80
21826;BME280;11075;47.944;11.776;2023-03-11T04:05:15;93575.16;;;3.94;23.58
21826;BME280;11075;47.944;11.776;2023-03-11T04:07:43;93592.84;;;5.45;22.12
21826;BME280;11075;47.944;11.776;2023-03-11T04:10:12;93625.31;;;5.01;21.66
21826;BME280;11075;47.944;11.776;2023-03-11T04:12:40;93615.94;;;3.95;23.30
21826;BME280;11075;47.944;11.776;2023-03-11T04:15:08;93620.91;;;3.58;23.91
21826;BME280;11075;47.944;11.776;2023-03-11T04:17:36;93608.47;;;2.55;24.29
21826;BME280;11075;47.944;11.776;2023-03-11T04:20:04;93629.53;;;0.93;25.49
21826;BME280;11075;47.944;11.776;2023-03-11T04:22:36;93627.06;;;4.77;22.30
21826;BME280;11075;47.944;11.776;2023-03-11T04:25:04;93623.69;;;3.79;22.84
21826;BME280;11075;47.944;11.776;2023-03-11T04:27:31;93613.47;;;4.40;22.87
21826;BME280;11075;47.944;11.776;2023-03-11T04:29:59;93617.28;;;3.63;23.19
21826;BME280;11075;47.944;11.776;2023-03-11T04:32:27;93615.84;;;2.93;23.73
21826;BME280;11075;47.944;11.776;2023-03-11T04:34:54;93642.31;;;4.76;21.63
21826;BME280;11075;47.944;11.776;2023-03-11T04:37:22;93640.16;;;3.64;22.32
21826;BME280;11075;47.944;11.776;2023-03-11T04:39:53;93637.38;;;3.52;22.65
21826;BME280;11075;47.944;11.776;2023-03-11T04:42:20;93627.47;;;1.66;23.90
21826;BME280;11075;47.944;11.776;2023-03-11T04:44:47;93622.75;;;2.94;23.07
21826;BME280;11075;47.944;11.776;2023-03-11T04:47:14;93622.28;;;2.00;23.72
21826;BME280;11075;47.944;11.776;2023-03-11T04:49:40;93635.69;;;3.38;22.15
21826;BME280;11075;47.944;11.776;2023-03-11T04:52:09;93639.94;;;3.05;22.27
21826;BME280;11075;47.944;11.776;2023-03-11T04:54:37;93635.28;;;5.25;21.02
21826;BME280;11075;47.944;11.776;2023-03-11T04:57:04;93629.06;;;4.00;22.47
21826;BME280;11075;47.944;11.776;2023-03-11T04:59:32;93648.63;;;4.42;21.32
21826;BME280;11075;47.944;11.776;2023-03-11T05:01:58;93647.53;;;1.80;23.73
21826;BME280;11075;47.944;11.776;2023-03-11T05:04:25;93626.16;;;1.55;24.62
21826;BME280;11075;47.944;11.776;2023-03-11T05:06:52;93630.84;;;2.63;23.98
21826;BME280;11075;47.944;11.776;2023-03-11T05:09:22;93644.31;;;1.61;24.25
21826;BME280;11075;47.944;11.776;2023-03-11T05:11:49;93643.31;;;2.28;23.79
21826;BME280;11075;47.944;11.776;2023-03-11T05:14:18;93638.16;;;1.52;24.35
21826;BME280;11075;47.944;11.776;2023-03-11T05:16:44;93650.22;;;3.50;22.83
21826;BME280;11075;47.944;11.776;2023-03-11T05:19:12;93635.84;;;2.56;24.01
21826;BME280;11075;47.944;11.776;2023-03-11T05:22:01;93650.75;;;2.74;22.69
21826;BME280;11075;47.944;11.776;2023-03-11T05:24:28;93663.28;;;2.99;22.43
21826;BME280;11075;47.944;11.776;2023-03-11T05:26:56;93650.84;;;4.02;22.06
21826;BME280;11075;47.944;11.776;2023-03-11T05:29:24;93668.34;;;3.65;22.31
21826;BME280;11075;47.944;11.776;2023-03-11T05:31:52;93665.31;;;2.11;23.66
21826;BME280;11075;47.944;11.776;2023-03-11T05:34:20;93666.53;;;3.31;22.95
21826;BME280;11075;47.944;11.776;2023-03-11T05:36:47;93658.22;;;2.55;24.17
21826;BME280;11075;47.944;11.776;2023-03-11T05:39:14;93667.13;;;3.54;22.58
21826;BME280;11075;47.944;11.776;2023-03-11T05:41:42;93673.34;;;2.28;24.05
21826;BME280;11075;47.944;11.776;2023-03-11T05:44:10;93670.53;;;1.85;24.20
21826;BME280;11075;47.944;11.776;2023-03-11T05:46:38;93670.34;;;-0.35;25.80
21826;BME280;11075;47.944;11.776;2023-03-11T05:49:05;93666.91;;;1.28;24.46
21826;BME280;11075;47.944;11.776;2023-03-11T05:51:33;93668.88;;;1.67;24.84
21826;BME280;11075;47.944;11.776;2023-03-11T05:54:00;93674.94;;;1.59;24.10
21826;BME280;11075;47.944;11.776;2023-03-11T05:56:34;93678.28;;;2.12;23.88
21826;BME280;11075;47.944;11.776;2023-03-11T05:59:02;93671.66;;;1.62;24.73
21826;BME280;11075;47.944;11.776;2023-03-11T06:01:32;93664.56;;;1.04;25.23
21826;BME280;11075;47.944;11.776;2023-03-11T06:03:59;93666.03;;;2.51;23.87
21826;BME280;11075;47.944;11.776;2023-03-11T06:06:26;93678.25;;;2.61;23.49
21826;BME280;11075;47.944;11.776;2023-03-11T06:08:54;93674.38;;;3.01;23.35
21826;BME280;11075;47.944;11.776;2023-03-11T06:11:23;93681.69;;;1.42;24.78
21826;BME280;11075;47.944;11.776;2023-03-11T06:13:52;93678.53;;;1.40;24.95
21826;BME280;11075;47.944;11.776;2023-03-11T06:16:25;93674.69;;;1.02;25.74
21826;BME280;11075;47.944;11.776;2023-03-11T06:18:56;93681.44;;;1.52;25.66
21826;BME280;11075;47.944;11.776;2023-03-11T06:21:29;93682.94;;;2.64;24.48
21826;BME280;11075;47.944;11.776;2023-03-11T06:23:56;93696.94;;;2.87;24.01
21826;BME280;11075;47.944;11.776;2023-03-11T06:26:25;93703.41;;;1.44;24.92
21826;BME280;11075;47.944;11.776;2023-03-11T06:28:53;93702.41;;;2.82;24.30
21826;BME280;11075;47.944;11.776;2023-03-11T06:31:25;93718.06;;;3.43;23.19
21826;BME280;11075;47.944;11.776;2023-03-11T06:34:04;93728.25;;;3.24;23.16
21826;BME280;11075;47.944;11.776;2023-03-11T06:36:32;93715.91;;;2.45;24.78
21826;BME280;11075;47.944;11.776;2023-03-11T06:38:59;93727.13;;;2.34;24.51
21826;BME280;11075;47.944;11.776;2023-03-11T06:41:27;93720.88;;;3.30;24.24
21826;BME280;11075;47.944;11.776;2023-03-11T06:43:56;93724.06;;;1.11;25.59
21826;BME280;11075;47.944;11.776;2023-03-11T06:46:26;93708.69;;;1.00;26.51
21826;BME280;11075;47.944;11.776;2023-03-11T06:48:56;93721.34;;;2.89;25.09
21826;BME280;11075;47.944;11.776;2023-03-11T06:51:23;93742.56;;;4.10;23.52
21826;BME280;11075;47.944;11.776;2023-03-11T06:53:51;93741.53;;;3.59;23.71
21826;BME280;11075;47.944;11.776;2023-03-11T06:56:21;93745.03;;;4.91;22.51
21826;BME280;11075;47.944;11.776;2023-03-11T06:58:59;93750.97;;;3.22;23.86
21826;BME280;11075;47.944;11.776;2023-03-11T07:01:29;93739.03;;;3.54;24.16
21826;BME280;11075;47.944;11.776;2023-03-11T07:03:59;93757.09;;;1.86;24.97
21826;BME280;11075;47.944;11.776;2023-03-11T07:06:27;93754.69;;;1.76;25.56
21826;BME280;11075;47.944;11.776;2023-03-11T07:09:03;93770.84;;;3.24;23.45
21826;BME280;11075;47.944;11.776;2023-03-11T07:11:31;93761.56;;;2.39;24.60
21826;BME280;11075;47.944;11.776;2023-03-11T07:14:05;93767.63;;;2.70;24.14
21826;BME280;11075;47.944;11.776;2023-03-11T07:16:37;93773.66;;;3.45;23.59
21826;BME280;11075;47.944;11.776;2023-03-11T07:19:10;93782.13;;;2.64;23.65
21826;BME280;11075;47.944;11.776;2023-03-11T07:21:38;93785.69;;;4.03;22.52
21826;BME280;11075;47.944;11.776;2023-03-11T07:24:06;93785.91;;;1.70;24.47
21826;BME280;11075;47.944;11.776;2023-03-11T07:26:34;93792.69;;;2.07;24.51
21826;BME280;11075;47.944;11.776;2023-03-11T07:29:01;93805.22;;;2.15;24.05
21826;BME280;11075;47.944;11.776;2023-03-11T07:31:30;93793.88;;;3.20;23.51
21826;BME280;11075;47.944;11.776;2023-03-11T07:33:59;93821.56;;;3.10;22.88
21826;BME280;11075;47.944;11.776;2023-03-11T07:36:27;93813.38;;;1.52;24.61
21826;BME280;11075;47.944;11.776;2023-03-11T07:39:00;93822.75;;;2.87;23.33
21826;BME280;11075;47.944;11.776;2023-03-11T07:41:32;93813.25;;;4.16;23.13
21826;BME280;11075;47.944;11.776;2023-03-11T07:44:01;93823.19;;;3.63;23.01
21826;BME280;11075;47.944;11.776;2023-03-11T07:46:29;93833.03;;;3.37;22.65
21826;BME280;11075;47.944;11.776;2023-03-11T07:48:57;93823.81;;;3.95;22.85
21826;BME280;11075;47.944;11.776;2023-03-11T07:51:27;93850.25;;;5.70;20.88
21826;BME280;11075;47.944;11.776;2023-03-11T07:53:57;93864.97;;;5.25;20.89
21826;BME280;11075;47.944;11.776;2023-03-11T07:56:28;93862.81;;;4.17;22.07
21826;BME280;11075;47.944;11.776;2023-03-11T07:58:57;93850.66;;;2.05;24.43
21826;BME280;11075;47.944;11.776;2023-03-11T08:01:27;93848.84;;;2.45;23.43
21826;BME280;11075;47.944;11.776;2023-03-11T08:03:56;93849.38;;;3.87;22.58
21826;BME280;11075;47.944;11.776;2023-03-11T08:06:27;93857.63;;;2.77;23.05
21826;BME280;11075;47.944;11.776;2023-03-11T08:08:58;93867.22;;;3.61;22.41
21826;BME280;11075;47.944;11.776;2023-03-11T08:11:26;93861.19;;;3.12;22.73
21826;BME280;11075;47.944;11.776;2023-03-11T08:13:54;93858.47;;;2.95;22.89
21826;BME280;11075;47.944;11.776;2023-03-11T08:16:24;93885.13;;;5.52;20.28
21826;BME280;11075;47.944;11.776;2023-03-11T08:18:51;93876.88;;;3.31;22.14
21826;BME280;11075;47.944;11.776;2023-03-11T08:21:24;93868.84;;;2.65;22.93
21826;BME280;11075;47.944;11.776;2023-03-11T08:23:56;93880.91;;;3.11;22.52
21826;BME280;11075;47.944;11.776;2023-03-11T08:26:25;93879.72;;;4.38;20.86
21826;BME280;11075;47.944;11.776;2023-03-11T08:28:53;93881.81;;;3.81;21.95
21826;BME280;11075;47.944;11.776;2023-03-11T08:31:29;93882.78;;;4.75;20.85
21826;BME280;11075;47.944;11.776;2023-03-11T08:33:59;93893.94;;;4.77;20.22
21826;BME280;11075;47.944;11.776;2023-03-11T08:36:27;93888.94;;;4.58;21.39
21826;BME280;11075;47.944;11.776;2023-03-11T08:38:55;93902.84;;;4.89;20.58
21826;BME280;11075;47.944;11.776;2023-03-11T08:41:22;93909.13;;;3.29;21.12
21826;BME280;11075;47.944;11.776;2023-03-11T08:43:48;93902.31;;;2.97;21.97
21826;BME280;11075;47.944;11.776;2023-03-11T08:46:28;93902.16;;;4.37;20.59
21826;BME280;11075;47.944;11.776;2023-03-11T08:48:56;93912.81;;;4.54;19.97
21826;BME280;11075;47.944;11.776;2023-03-11T08:51:28;93910.34;;;3.89;21.00
21826;BME280;11075;47.944;11.776;2023-03-11T08:53:56;93914.13;;;4.95;19.97
21826;BME280;11075;47.944;11.776;2023-03-11T08:56:23;93919.03;;;6.23;19.32
21826;BME280;11075;47.944;11.776;2023-03-11T08:58:50;93909.22;;;2.67;21.62
21826;BME280;11075;47.944;11.776;2023-03-11T09:01:17;93911.59;;;3.08;21.20
21826;BME280;11075;47.944;11.776;2023-03-11T09:03:45;93923.34;;;5.06;19.85
21826;BME280;11075;47.944;11.776;2023-03-11T09:06:13;93931.41;;;1.46;21.91
21826;BME280;11075;47.944;11.776;2023-03-11T09:08:42;93905.38;;;0.93;23.28
21826;BME280;11075;47.944;11.776;2023-03-11T09:11:10;93879.44;;;-5.07;30.35
21826;BME280;11075;47.944;11.776;2023-03-11T09:13:40;93921.00;;;4.32;19.76
21826;BME280;11075;47.944;11.776;2023-03-11T09:16:11;93910.44;;;5.96;19.57
21826;BME280;11075;47.944;11.776;2023-03-11T09:18:39;93909.16;;;6.56;20.10
21826;BME280;11075;47.944;11.776;2023-03-11T09:21:06;93926.94;;;6.73;19.29
21826;BME280;11075;47.944;11.776;2023-03-11T09:23:33;93920.97;;;5.43;19.40
21826;BME280;11075;47.944;11.776;2023-03-11T09:26:00;93921.91;;;5.47;19.76
21826;BME280;11075;47.944;11.776;2023-03-11T09:28:27;93918.28;;;7.01;18.97
21826;BME280;11075;47.944;11.776;2023-03-11T09:30:55;93922.22;;;4.52;20.38
21826;BME280;11075;47.944;11.776;2023-03-11T09:33:22;93922.31;;;8.32;18.14
21826;BME280;11075;47.944;11.776;2023-03-11T09:35:49;93950.44;;;2.78;20.72
21826;BME280;11075;47.944;11.776;2023-03-11T09:38:16;93932.00;;;6.33;18.64
21826;BME280;11075;47.944;11.776;2023-03-11T09:40:57;93939.50;;;6.60;19.43
21826;BME280;11075;47.944;11.776;2023-03-11T09:43:57;93954.13;;;6.21;18.43
21826;BME280;11075;47.944;11.776;2023-03-11T09:49:20;93959.75;;;6.49;17.82
21826;BME280;11075;47.944;11.776;2023-03-11T09:52:18;93962.50;;;8.56;18.18
21826;BME280;11075;47.944;11.776;2023-03-11T09:54:49;93970.19;;;6.42;18.81
21826;BME280;11075;47.944;11.776;2023-03-11T09:57:21;93960.44;;;4.99;19.91
21826;BME280;11075;47.944;11.776;2023-03-11T09:59:49;93971.38;;;5.61;19.24
21826;BME280;11075;47.944;11.776;2023-03-11T10:02:18;93960.88;;;5.77;19.29
21826;BME280;11075;47.944;11.776;2023-03-11T10:05:00;93962.66;;;7.22;18.30
21826;BME280;11075;47.944;11.776;2023-03-11T10:08:06;93978.19;;;7.78;17.40
21826;BME280;11075;47.944;11.776;2023-03-11T10:10:44;93970.63;;;9.95;17.12
21826;BME280;11075;47.944;11.776;2023-03-11T10:16:05;93986.69;;;7.43;18.08
21826;BME280;11075;47.944;11.776;2023-03-11T10:18:56;93967.78;;;5.11;19.63
21826;BME280;11075;47.944;11.776;2023-03-11T10:24:05;93989.91;;;7.98;17.52
21826;BME280;11075;47.944;11.776;2023-03-11T10:26:54;93984.00;;;6.03;18.74
21826;BME280;11075;47.944;11.776;2023-03-11T10:29:29;94008.31;;;6.93;17.21
21826;BME280;11075;47.944;11.776;2023-03-11T10:32:05;94015.22;;;9.48;15.90
21826;BME280;11075;47.944;11.776;2023-03-11T10:37:22;94001.63;;;9.73;17.07
21826;BME280;11075;47.944;11.776;2023-03-11T10:40:13;94006.09;;;10.51;15.64
21826;BME280;11075;47.944;11.776;2023-03-11T10:42:45;94009.94;;;9.99;15.79
21826;BME280;11075;47.944;11.776;2023-03-11T10:45:13;93986.50;;;10.00;17.24
21826;BME280;11075;47.944;11.776;2023-03-11T10:47:40;94036.19;;;11.53;14.43
21826;BME280;11075;47.944;11.776;2023-03-11T10:50:26;94036.81;;;9.52;16.46
21826;BME280;11075;47.944;11.776;2023-03-11T10:53:23;94037.41;;;10.24;16.06
21826;BME280;11075;47.944;11.776;2023-03-11T10:55:52;94035.88;;;12.04;15.20
21826;BME280;11075;47.944;11.776;2023-03-11T10:58:25;94042.00;;;9.29;16.22
21826;BME280;11075;47.944;11.776;2023-03-11T11:01:16;94041.34;;;8.12;16.54
21826;BME280;11075;47.944;11.776;2023-03-11T11:03:49;94017.09;;;11.20;16.17
21826;BME280;11075;47.944;11.776;2023-03-11T11:06:23;94016.47;;;9.07;17.52
21826;BME280;11075;47.944;11.776;2023-03-11T11:11:40;94036.53;;;11.09;15.35
21826;BME280;11075;47.944;11.776;2023-03-11T11:14:07;94061.44;;;7.24;16.41
21826;BME280;11075;47.944;11.776;2023-03-11T11:16:36;94048.81;;;9.11;15.18
21826;BME280;11075;47.944;11.776;2023-03-11T11:19:11;94044.91;;;11.04;14.74
21826;BME280;11075;47.944;11.776;2023-03-11T11:21:48;94053.59;;;6.86;16.38
21826;BME280;11075;47.944;11.776;2023-03-11T11:24:22;94036.97;;;11.11;14.51
21826;BME280;11075;47.944;11.776;2023-03-11T11:27:03;94039.28;;;6.19;16.65
21826;BME280;11075;47.944;11.776;2023-03-11T11:29:30;94029.19;;;7.00;17.21
21826;BME280;11075;47.944;11.776;2023-03-11T11:32:24;94037.97;;;9.07;15.87
21826;BME280;11075;47.944;11.776;2023-03-11T11:37:26;94046.69;;;8.24;16.17
21826;BME280;11075;47.944;11.776;2023-03-11T11:40:13;94036.84;;;11.92;14.43
21826;BME280;11075;47.944;11.776;2023-03-11T11:42:50;94031.91;;;9.70;15.60
21826;BME280;11075;47.944;11.776;2023-03-11T11:45:30;94032.16;;;7.64;16.67
21826;BME280;11075;47.944;11.776;2023-03-11T11:48:05;94041.06;;;11.67;14.50
21826;BME280;11075;47.944;11.776;2023-03-11T11:50:40;94055.31;;;11.25;13.76
21826;BME280;11075;47.944;11.776;2023-03-11T11:53:18;94047.22;;;10.32;13.99
21826;BME280;11075;47.944;11.776;2023-03-11T11:55:48;94048.19;;;4.05;17.65
21826;BME280;11075;47.944;11.776;2023-03-11T11:58:18;94029.47;;;9.05;16.04
21826;BME280;11075;47.944;11.776;2023-03-11T12:09:26;94026.94;;;13.13;13.45
21826;BME280;11075;47.944;11.776;2023-03-11T12:15:44;94051.63;;;11.33;13.68
21826;BME280;11075;47.944;11.776;2023-03-11T12:17:55;94026.81;;;11.05;14.90
21826;BME280;11075;47.944;11.776;2023-03-11T12:20:44;94046.84;;;6.38;16.89
21826;BME280;11075;47.944;11.776;2023-03-11T12:31:46;94030.22;;;12.13;13.85
21826;BME280;11075;47.944;11.776;2023-03-11T12:34:17;94011.88;;;9.67;15.81
21826;BME280;11075;47.944;11.776;2023-03-11T12:36:47;94022.75;;;11.57;14.22
21826;BME280;11075;47.944;11.776;2023-03-11T12:39:31;94035.16;;;11.61;14.28
21826;BME280;11075;47.944;11.776;2023-03-11T12:42:13;94016.38;;;7.05;17.26
21826;BME280;11075;47.944;11.776;2023-03-11T12:44:43;94018.53;;;12.05;14.81
21826;BME280;11075;47.944;11.776;2023-03-11T12:49:42;94022.91;;;13.33;13.80
21826;BME280;11075;47.944;11.776;2023-03-11T12:54:42;94026.72;;;10.82;14.31
21826;BME280;11075;47.944;11.776;2023-03-11T13:03:23;94032.91;;;8.38;15.32
21826;BME280;11075;47.944;11.776;2023-03-11T13:06:14;94025.88;;;8.33;15.30
21826;BME280;11075;47.944;11.776;2023-03-11T13:08:52;94022.44;;;8.61;15.57
21826;BME280;11075;47.944;11.776;2023-03-11T13:14:07;94017.38;;;6.68;17.03
21826;BME280;11075;47.944;11.776;2023-03-11T13:16:35;94000.44;;;7.66;16.94
21826;BME280;11075;47.944;11.776;2023-03-11T13:21:52;94005.31;;;9.37;15.70
21826;BME280;11075;47.944;11.776;2023-03-11T13:29:42;94023.63;;;7.25;15.87
21826;BME280;11075;47.944;11.776;2023-03-11T13:35:57;94034.56;;;7.00;15.96
21826;BME280;11075;47.944;11.776;2023-03-11T13:41:20;94032.06;;;8.21;16.29
21826;BME280;11075;47.944;11.776;2023-03-11T13:43:49;94029.03;;;10.45;14.85
21826;BME280;11075;47.944;11.776;2023-03-11T13:46:27;94048.28;;;6.36;15.89
21826;BME280;11075;47.944;11.776;2023-03-11T13:49:03;94050.97;;;10.82;13.84
21826;BME280;11075;47.944;11.776;2023-03-11T13:51:43;94055.56;;;7.31;15.32
21826;BME280;11075;47.944;11.776;2023-03-11T13:56:49;94038.22;;;6.12;17.04
21826;BME280;11075;47.944;11.776;2023-03-11T14:01:59;94052.78;;;11.55;14.31
21826;BME280;11075;47.944;11.776;2023-03-11T14:04:33;94050.72;;;7.93;15.98
21826;BME280;11075;47.944;11.776;2023-03-11T14:07:13;94044.31;;;9.59;15.58
21826;BME280;11075;47.944;11.776;2023-03-11T14:09:40;94044.13;;;7.91;16.68
21826;BME280;11075;47.944;11.776;2023-03-11T14:12:08;94051.88;;;9.25;15.24
21826;BME280;11075;47.944;11.776;2023-03-11T14:14:58;94051.25;;;9.60;15.35
21826;BME280;11075;47.944;11.776;2023-03-11T14:17:26;94043.91;;;10.23;15.05
21826;BME280;11075;47.944;11.776;2023-03-11T14:20:16;94053.44;;;8.58;15.61
21826;BME280;11075;47.944;11.776;2023-03-11T14:22:46;94058.47;;;9.87;15.28
21826;BME280;11075;47.944;11.776;2023-03-11T14:25:18;94054.84;;;7.91;15.96
21826;BME280;11075;47.944;11.776;2023-03-11T14:27:59;94050.47;;;8.87;15.23
21826;BME280;11075;47.944;11.776;2023-03-11T14:30:29;94056.31;;;9.33;15.55
21826;BME280;11075;47.944;11.776;2023-03-11T14:33:01;94044.09;;;9.36;15.90